bonmarche.co.uk alexa rank chart, bonmarche.co.uk alexa rank daily changes

bonmarche.co.uk alexa rank chart, bonmarche.co.uk alexa rank daily changes

bonmarche.co.uk
Actual rank:
144 476

RANK HISTORY

Date Rank Diff
2018/01/20 144 476 +2 708
2018/01/19 141 768 -67
2018/01/18 141 835 +898
2018/01/17 140 937 -1 328
2018/01/16 142 265 -8 120
2018/01/15 150 385 -1 617
2018/01/14 152 002 -2 609
2018/01/13 154 611 +401
2018/01/12 154 210 -1 658
2018/01/11 155 868 +4 033
2018/01/10 151 835 -5 797
2018/01/09 157 632 +1 261
2018/01/08 156 371 +3 356
2018/01/07 153 015 -6 675
2018/01/06 159 690 +1 643
2018/01/05 158 047 +6 256
2018/01/04 151 791 +3 352
2018/01/03 148 439 +2 430
2018/01/02 146 009 -1 357
2018/01/01 147 366 +2 628
2017/12/31 144 738 -1 888
2017/12/30 146 626 +1 111
2017/12/29 145 515 +5 519
2017/12/28 139 996 -1 395
2017/12/27 141 391 -1 136
2017/12/26 142 527 +7 272
2017/12/25 135 255 +672
2017/12/24 134 583 +3 354
2017/12/23 131 229 +1 091
2017/12/22 130 138 +491
2017/12/21 129 647 +4 230
2017/12/20 125 417 +5 070
2017/12/19 120 347 +1 584
2017/12/18 118 763 +772
2017/12/17 117 991 +4 105
2017/12/16 113 886 -440
2017/12/15 114 326 +1 721
2017/12/14 112 605 +2 455
2017/12/13 110 150 -1 827
2017/12/12 111 977 +631
2017/12/11 111 346 -1 181
2017/12/10 112 527 +1 122
2017/12/09 111 405 -733
2017/12/08 112 138 -380
2017/12/07 112 518 -66
2017/12/06 112 584 +2 486
2017/12/05 110 098 +30
2017/12/04 110 068 -2 304
2017/12/03 112 372 -334
2017/12/02 112 706 -1 559
2017/12/01 114 265 -1 136
2017/11/30 115 401 +1 682
2017/11/29 113 719 -2 691
2017/11/28 116 410 +665
2017/11/27 115 745 -1 293
2017/11/26 117 038 -2 764
2017/11/25 119 802 +1 125
2017/11/24 118 677 -1 634
2017/11/23 120 311 -451
2017/11/22 120 762 -5 007
2017/11/21 125 769

WIDGET FOR YOUR SITE

DOMAINS WITH THE NEAREST RANK

Domain Rank
chinamerger.com 144 471
hoaxbuster.com 144 472
pagodesparabaixar.org 144 473
maisonsetappartements.fr 144 474
iainsalatiga.ac.id 144 475
bonmarche.co.uk 144 476
arabtrvl.com 144 477
lol.travel 144 478
pevec.hr 144 479
clubexpress.com 144 480
infosat.de 144 481

DOMAINS WITH THE NEAREST RANK BY TLD .co.uk

Domain Rank
disney.co.uk 143 529
buyspares.co.uk 143 607
probikekit.co.uk 143 669
sunshine.co.uk 143 736
ispace.co.uk 144 461
bonmarche.co.uk 144 476
iosh.co.uk 144 571
netchimp.co.uk 144 704
ticketweb.co.uk 144 780
thewestmorlandgazette.co.uk 144 986
blackwasp.co.uk 145 051